Terminal Aerodrome Forecast
Issued by NWS Charleston, WV

Current Version | Previous Version | Graphics & Text | Print | Product List | Glossary On
Versions: 1 2 3 4 5 6 7 8 9 10 11 12 13 14 15 16 17 18 19 20 21
000
FTUS41 KRLX 240900 AAA
TAFCRW
TAF AMD
KCRW 240911Z 2409/2506 VRB04KT 1SM -SN BR OVC004
      TEMPO 2410/2412 1/2SM SN OVC002
     FM241400 30007KT 5SM BR OVC004
     FM241500 28007KT P6SM BKN008
     FM241800 26009G17KT P6SM BKN020=

USA.gov is the U.S. government's official web portal to all federal, state and local government web resources and services.